Time;durP1;ratioP1;P1;durP2;ratioP2;P2;SDS_P1;SDS_P2;PMS_P1;PMS_P2;Temp;Humidity;BMP_temperature;BMP_pressure;BME280_temperature;BME280_humidity;BME280_pressure;Samples;Min_cycle;Max_cycle;Signal;HPM_P1;HPM_P2
2023/03/02 00:01:19;;;;;;;229.63;208.80;;;;;;;0.29;88.22;102954.38;4971117;28;20043;-77
2023/03/02 00:03:45;;;;;;;229.68;208.10;;;;;;;0.21;88.48;102948.03;5001776;28;20058;-76
2023/03/02 00:06:11;;;;;;;227.60;206.32;;;;;;;0.21;88.53;102953.31;4967925;28;20055;-76
2023/03/02 00:08:38;;;;;;;225.90;205.40;;;;;;;0.03;88.79;102949.78;4988972;28;20126;-76
2023/03/02 00:11:22;;;;;;;234.60;213.68;;;;;;;0.15;88.36;102946.00;4969136;28;20269;-76
2023/03/02 00:13:48;;;;;;;228.77;208.23;;;;;;;0.02;88.71;102937.59;4972346;28;20058;-75
2023/03/02 00:16:13;;;;;;;230.50;209.52;;;;;;;-0.01;88.86;102943.97;4955405;28;20042;-77
2023/03/02 00:18:39;;;;;;;236.40;215.38;;;;;;;0.03;89.19;102941.88;4972162;28;20054;-77
2023/03/02 00:21:09;;;;;;;229.18;208.15;;;;;;;0.16;89.10;102947.66;4954230;28;20027;-76
2023/03/02 00:23:36;;;;;;;231.70;211.73;;;;;;;0.05;89.08;102949.63;4970443;28;20061;-76
2023/03/02 00:26:03;;;;;;;229.98;208.65;;;;;;;0.10;88.71;102945.59;4975143;28;20047;-78
2023/03/02 00:28:29;;;;;;;225.80;205.35;;;;;;;0.06;88.67;102938.94;4965499;28;20058;-78
2023/03/02 00:30:55;;;;;;;226.80;204.93;;;;;;;0.10;88.50;102934.22;4955017;28;20066;-78
2023/03/02 00:33:21;;;;;;;226.63;204.73;;;;;;;0.03;88.17;102936.63;4970599;28;20030;-75
2023/03/02 00:35:46;;;;;;;227.73;205.43;;;;;;;0.01;88.25;102930.69;5000179;28;20105;-76
2023/03/02 00:38:12;;;;;;;228.10;205.77;;;;;;;-0.10;88.25;102922.94;4953974;28;20034;-76
2023/03/02 00:40:47;;;;;;;228.63;207.88;;;;;;;-0.08;88.41;102926.25;4967719;28;20046;-76
2023/03/02 00:43:13;;;;;;;231.48;206.75;;;;;;;-0.09;88.43;102925.44;4969187;28;20026;-77
2023/03/02 00:45:40;;;;;;;229.53;209.37;;;;;;;-0.17;89.26;102913.97;4970767;28;20045;-77
2023/03/02 00:48:06;;;;;;;229.02;208.50;;;;;;;-0.13;89.03;102920.63;4955404;28;20062;-76
2023/03/02 00:50:31;;;;;;;232.70;209.32;;;;;;;-0.03;88.93;102919.59;4967634;28;20039;-77
2023/03/02 00:52:57;;;;;;;234.47;213.23;;;;;;;-0.11;88.50;102914.22;4972675;28;20030;-79
2023/03/02 00:55:23;;;;;;;226.80;206.70;;;;;;;-0.04;88.60;102910.03;4972307;28;20042;-78
2023/03/02 00:57:53;;;;;;;224.18;201.73;;;;;;;0.00;88.10;102913.22;4975226;28;20038;-78
2023/03/02 01:00:26;;;;;;;235.03;213.37;;;;;;;-0.26;88.50;102901.69;4974338;28;20680;-78
2023/03/02 01:02:55;;;;;;;226.82;204.55;;;;;;;-0.21;88.51;102907.31;4950425;28;20061;-78
2023/03/02 01:05:21;;;;;;;224.77;203.47;;;;;;;-0.24;88.27;102905.81;4974292;28;20043;-77
2023/03/02 01:07:47;;;;;;;226.60;205.57;;;;;;;-0.19;88.68;102908.03;4956098;28;20122;-77
2023/03/02 01:10:13;;;;;;;234.07;211.73;;;;;;;-0.31;88.28;102908.22;4956714;28;20042;-76
2023/03/02 01:12:40;;;;;;;233.73;212.97;;;;;;;-0.25;88.57;102903.34;4955802;28;20039;-77
2023/03/02 01:15:08;;;;;;;234.77;213.97;;;;;;;-0.23;87.89;102896.13;4956284;28;20149;-77
2023/03/02 01:17:33;;;;;;;222.87;201.97;;;;;;;-0.36;88.49;102897.28;4971191;28;20497;-78
2023/03/02 01:19:59;;;;;;;240.53;220.00;;;;;;;-0.47;88.85;102892.22;4992782;28;20114;-77
2023/03/02 01:22:25;;;;;;;227.23;206.30;;;;;;;-0.48;88.90;102890.53;4983688;28;20034;-78
2023/03/02 01:24:52;;;;;;;237.70;214.47;;;;;;;-0.51;88.69;102892.63;4980094;28;20042;-78
2023/03/02 01:27:18;;;;;;;225.90;204.87;;;;;;;-0.57;89.24;102894.84;4976315;28;20042;-78
2023/03/02 01:29:44;;;;;;;226.80;207.25;;;;;;;-0.53;89.26;102890.16;4971660;28;20106;-77
2023/03/02 01:32:10;;;;;;;220.77;199.57;;;;;;;-0.36;88.90;102886.75;4984662;28;20134;-78
2023/03/02 01:34:36;;;;;;;226.17;206.07;;;;;;;-0.56;89.08;102885.97;4972175;28;20049;-77
2023/03/02 01:37:02;;;;;;;221.25;202.15;;;;;;;-0.53;88.92;102884.06;4971873;28;20043;-78
2023/03/02 01:39:28;;;;;;;223.88;204.63;;;;;;;-0.53;88.49;102879.63;4988174;28;20038;-79
2023/03/02 01:41:53;;;;;;;219.80;200.75;;;;;;;-0.66;88.45;102873.84;4972201;28;20042;-79
2023/03/02 01:44:38;;;;;;;222.37;202.60;;;;;;;-0.50;88.35;102889.84;4973682;28;20117;-76
2023/03/02 01:47:12;;;;;;;221.60;202.47;;;;;;;-0.48;88.35;102882.63;4971303;28;20022;-79
2023/03/02 01:49:48;;;;;;;223.00;202.07;;;;;;;-0.57;88.57;102875.59;4972336;28;20076;-79
2023/03/02 01:52:15;;;;;;;221.33;202.63;;;;;;;-0.60;88.24;102871.47;4986128;28;20050;-79
2023/03/02 01:54:42;;;;;;;221.23;201.20;;;;;;;-0.67;88.35;102885.34;4955645;28;20035;-79
2023/03/02 01:57:10;;;;;;;232.60;213.10;;;;;;;-0.68;88.23;102883.66;4989926;28;20072;-78
2023/03/02 01:59:39;;;;;;;230.03;210.77;;;;;;;-0.67;88.57;102880.09;5003664;28;20110;-78
2023/03/02 02:02:07;;;;;;;235.10;215.10;;;;;;;-0.70;88.42;102867.19;4990382;28;20038;-79
2023/03/02 02:04:36;;;;;;;223.33;203.70;;;;;;;-0.49;87.86;102866.97;4974820;28;20145;-78
2023/03/02 02:07:06;;;;;;;221.83;203.00;;;;;;;-0.60;88.18;102865.38;4990773;28;20098;-78
2023/03/02 02:09:49;;;;;;;236.07;216.37;;;;;;;-0.58;88.29;102866.06;4976276;28;20034;-79
2023/03/02 02:12:18;;;;;;;233.90;214.13;;;;;;;-0.63;88.58;102868.28;4988064;28;20641;-78
2023/03/02 02:14:45;;;;;;;235.97;216.20;;;;;;;-0.70;88.63;102867.19;4990904;28;20490;-78
2023/03/02 02:17:12;;;;;;;222.50;202.93;;;;;;;-0.66;88.54;102860.69;4973451;28;20133;-78
2023/03/02 02:19:56;;;;;;;231.77;211.93;;;;;;;-0.65;88.55;102859.72;4974368;28;20369;-78
2023/03/02 02:22:42;;;;;;;232.60;213.47;;;;;;;-0.65;88.83;102854.44;4972673;28;20047;-78
2023/03/02 02:25:35;;;;;;;234.73;214.77;;;;;;;-0.41;87.73;102856.56;4974666;28;20046;-78
2023/03/02 02:28:07;;;;;;;223.25;204.35;;;;;;;-0.59;88.11;102851.25;4983966;28;20058;-77
2023/03/02 02:30:36;;;;;;;235.68;213.82;;;;;;;-0.61;88.05;102853.16;4969362;28;20457;-77
2023/03/02 02:33:04;;;;;;;238.63;217.93;;;;;;;-0.61;88.30;102855.78;4975465;28;20511;-78
2023/03/02 02:35:35;;;;;;;232.50;211.13;;;;;;;-0.70;88.36;102851.41;4986369;28;20054;-78
2023/03/02 02:38:07;;;;;;;222.17;201.90;;;;;;;-0.70;88.16;102846.16;4957288;28;20041;-77
2023/03/02 02:40:48;;;;;;;229.67;210.40;;;;;;;-0.75;88.31;102845.75;4954118;28;20130;-79
2023/03/02 02:43:19;;;;;;;236.20;216.50;;;;;;;-0.82;88.82;102841.03;4949714;28;20069;-79
2023/03/02 02:45:47;;;;;;;232.60;212.87;;;;;;;-0.71;88.59;102849.75;4970606;28;20045;-79
2023/03/02 02:48:23;;;;;;;224.03;205.27;;;;;;;-0.69;88.78;102847.81;4971249;28;20035;-79
2023/03/02 02:50:52;;;;;;;219.47;200.53;;;;;;;-0.82;88.81;102850.75;4986561;28;20494;-79
2023/03/02 02:53:21;;;;;;;218.90;200.30;;;;;;;-0.76;88.38;102850.19;4952019;28;20512;-78
2023/03/02 02:55:53;;;;;;;221.47;203.07;;;;;;;-0.80;87.78;102851.44;4970488;28;20039;-78
2023/03/02 02:58:38;;;;;;;217.00;198.80;;;;;;;-0.91;88.00;102849.81;4971600;28;20090;-80
2023/03/02 03:01:05;;;;;;;221.87;202.70;;;;;;;-0.96;88.41;102843.31;4977479;28;20049;-78
2023/03/02 03:03:38;;;;;;;226.47;206.57;;;;;;;-0.90;88.22;102846.19;4958439;28;20031;-78
2023/03/02 03:06:15;;;;;;;224.60;204.05;;;;;;;-0.98;88.18;102843.47;4971357;28;20131;-77
2023/03/02 03:08:44;;;;;;;231.27;211.70;;;;;;;-1.00;88.35;102836.69;4973132;28;20089;-78
2023/03/02 03:11:22;;;;;;;227.93;207.70;;;;;;;-0.89;88.23;102841.75;4973253;28;20039;-78
2023/03/02 03:14:01;;;;;;;239.07;213.10;;;;;;;-1.01;88.39;102843.75;4970530;28;20039;-77
2023/03/02 03:16:29;;;;;;;231.60;210.27;;;;;;;-0.94;88.29;102830.88;4973148;28;20027;-77
2023/03/02 03:19:00;;;;;;;227.20;204.53;;;;;;;-1.01;88.58;102837.66;5005187;28;20045;-78
2023/03/02 03:21:26;;;;;;;225.13;202.93;;;;;;;-1.09;88.90;102840.97;4976443;28;20058;-78
2023/03/02 03:23:52;;;;;;;237.57;214.33;;;;;;;-1.08;88.99;102842.66;4956313;28;20069;-79
2023/03/02 03:26:19;;;;;;;217.13;197.53;;;;;;;-1.10;89.19;102848.03;4957268;28;20153;-77
2023/03/02 03:28:46;;;;;;;232.70;211.80;;;;;;;-1.09;89.61;102856.75;4974134;28;20129;-77
2023/03/02 03:31:11;;;;;;;227.97;204.27;;;;;;;-1.05;89.40;102852.06;4973050;28;20130;-78
2023/03/02 03:33:37;;;;;;;230.77;207.50;;;;;;;-0.97;89.27;102862.69;4992117;28;20037;-78
2023/03/02 03:36:03;;;;;;;233.70;211.73;;;;;;;-1.05;89.03;102858.16;4991687;28;20101;-79
2023/03/02 03:38:29;;;;;;;221.20;202.13;;;;;;;-1.05;89.49;102855.50;4974568;28;20034;-77
2023/03/02 03:40:55;;;;;;;232.53;209.33;;;;;;;-0.99;89.14;102862.00;5008422;28;20035;-78
2023/03/02 03:43:21;;;;;;;218.80;198.00;;;;;;;-1.12;89.42;102851.78;4975947;28;20313;-78
2023/03/02 03:45:51;;;;;;;217.07;198.03;;;;;;;-1.12;89.40;102849.16;4973822;28;20069;-77
2023/03/02 03:48:18;;;;;;;221.73;198.83;;;;;;;-1.02;89.29;102847.31;4957409;28;20098;-80
2023/03/02 03:50:45;;;;;;;224.27;202.07;;;;;;;-1.08;89.12;102847.06;4973050;28;20575;-79
2023/03/02 03:53:11;;;;;;;224.67;204.63;;;;;;;-1.11;89.16;102846.38;4985592;28;20035;-81
2023/03/02 03:55:37;;;;;;;222.00;202.67;;;;;;;-1.11;89.52;102842.94;4973047;28;20031;-79
2023/03/02 03:58:02;;;;;;;223.00;203.70;;;;;;;-1.11;89.49;102841.13;5005385;28;20054;-79
2023/03/02 04:00:28;;;;;;;223.47;203.83;;;;;;;-1.08;89.22;102845.28;4991842;28;20038;-80
2023/03/02 04:03:00;;;;;;;232.60;213.05;;;;;;;-1.11;89.13;102840.28;4973683;28;20036;-79
2023/03/02 04:05:28;;;;;;;213.90;195.90;;;;;;;-1.08;89.28;102842.66;4975701;28;20035;-79
2023/03/02 04:07:54;;;;;;;219.43;200.40;;;;;;;-1.04;89.29;102849.28;4982369;28;20047;-78
2023/03/02 04:10:20;;;;;;;223.07;203.40;;;;;;;-1.08;89.38;102853.19;4977385;28;20050;-78
2023/03/02 04:12:47;;;;;;;225.60;205.13;;;;;;;-1.16;89.54;102845.16;4974171;28;20050;-76
2023/03/02 04:15:15;;;;;;;225.77;204.90;;;;;;;-1.13;89.52;102839.63;4941023;28;20501;-78
2023/03/02 04:17:43;;;;;;;224.93;202.83;;;;;;;-1.10;89.18;102844.59;4959069;28;20047;-79
2023/03/02 04:20:15;;;;;;;236.17;214.17;;;;;;;-1.13;89.09;102850.97;4956451;28;20033;-79
2023/03/02 04:22:44;;;;;;;226.40;206.40;;;;;;;-0.98;89.34;102853.16;4958714;28;20445;-79
2023/03/02 04:25:12;;;;;;;229.13;205.50;;;;;;;-1.04;89.24;102849.28;4956253;28;20039;-78
2023/03/02 04:27:38;;;;;;;229.60;209.57;;;;;;;-1.07;88.96;102848.75;4968903;28;20065;-77
2023/03/02 04:30:06;;;;;;;233.50;211.30;;;;;;;-1.07;88.92;102849.56;4985770;28;20097;-78
2023/03/02 04:32:31;;;;;;;220.90;198.10;;;;;;;-1.05;89.14;102847.63;4962922;28;20043;-78
2023/03/02 04:34:57;;;;;;;236.13;212.97;;;;;;;-1.16;89.50;102843.34;4990720;28;20117;-79
2023/03/02 04:37:23;;;;;;;225.87;206.60;;;;;;;-1.20;89.56;102846.41;4975174;28;20047;-79
2023/03/02 04:39:51;;;;;;;237.67;213.10;;;;;;;-1.17;89.38;102849.56;4959692;28;20067;-78
2023/03/02 04:42:18;;;;;;;230.77;209.60;;;;;;;-1.17;89.61;102843.50;4977312;28;20038;-78
2023/03/02 04:44:44;;;;;;;231.17;206.40;;;;;;;-1.10;89.54;102857.72;4977177;28;20023;-79
2023/03/02 04:47:10;;;;;;;233.40;201.03;;;;;;;-1.11;89.13;102851.63;4978301;28;20629;-78
2023/03/02 04:49:36;;;;;;;223.07;202.60;;;;;;;-1.14;89.71;102843.22;4975686;28;20038;-79
2023/03/02 04:52:02;;;;;;;221.40;202.20;;;;;;;-1.13;89.35;102847.50;4979456;28;20389;-78
2023/03/02 04:54:28;;;;;;;226.50;207.47;;;;;;;-1.10;89.45;102850.66;4974726;28;20034;-79
2023/03/02 04:56:54;;;;;;;222.00;203.00;;;;;;;-1.04;89.16;102858.97;4964710;28;20046;-78
2023/03/02 04:59:26;;;;;;;223.00;203.53;;;;;;;-1.02;89.25;102857.84;4974758;28;20041;-78
2023/03/02 05:01:54;;;;;;;221.27;201.27;;;;;;;-0.96;89.19;102853.81;4957279;28;20045;-78
2023/03/02 05:04:19;;;;;;;223.13;203.33;;;;;;;-1.07;88.92;102854.84;4974829;28;20042;-78
2023/03/02 05:06:45;;;;;;;216.80;198.37;;;;;;;-1.02;89.04;102863.09;4980308;28;20022;-79
2023/03/02 05:09:12;;;;;;;223.13;204.63;;;;;;;-1.11;88.37;102854.28;4973235;28;20117;-77
2023/03/02 05:11:37;;;;;;;223.93;204.90;;;;;;;-0.97;88.05;102863.53;4959402;28;20480;-78
2023/03/02 05:14:07;;;;;;;220.87;201.73;;;;;;;-0.99;88.20;102873.38;4972049;28;20054;-79
2023/03/02 05:16:35;;;;;;;222.33;202.67;;;;;;;-0.94;88.01;102860.63;4972003;28;20066;-77
2023/03/02 05:19:03;;;;;;;224.47;203.90;;;;;;;-1.12;88.35;102867.56;4974197;28;20041;-78
2023/03/02 05:21:29;;;;;;;217.93;197.67;;;;;;;-1.14;88.52;102861.63;4957170;28;20027;-78
2023/03/02 05:23:55;;;;;;;233.83;212.37;;;;;;;-1.11;88.50;102871.84;4956163;28;20052;-79
2023/03/02 05:26:21;;;;;;;237.30;212.13;;;;;;;-1.15;88.72;102859.97;4977079;28;20053;-79
2023/03/02 05:28:47;;;;;;;225.40;203.37;;;;;;;-1.17;88.65;102865.34;4956870;28;20068;-78
2023/03/02 05:31:30;;;;;;;225.63;204.67;;;;;;;-1.16;88.74;102860.91;4971445;28;20070;-78
2023/03/02 05:33:56;;;;;;;223.70;204.20;;;;;;;-1.19;89.22;102859.41;4957934;28;20552;-79
2023/03/02 05:36:22;;;;;;;227.53;205.90;;;;;;;-1.12;89.05;102859.69;4954992;28;20039;-78
2023/03/02 05:38:48;;;;;;;233.40;212.97;;;;;;;-1.09;88.87;102862.00;4958044;28;20100;-80
2023/03/02 05:41:13;;;;;;;226.37;203.63;;;;;;;-1.12;88.54;102847.34;4973747;28;20089;-78
2023/03/02 05:43:39;;;;;;;223.77;202.07;;;;;;;-1.10;89.06;102855.09;4973122;28;20070;-79
2023/03/02 05:46:05;;;;;;;224.73;204.53;;;;;;;-1.10;89.46;102852.47;4971763;28;20105;-78
2023/03/02 05:48:31;;;;;;;224.40;203.27;;;;;;;-1.11;89.00;102849.00;4964727;28;20049;-78
2023/03/02 05:50:57;;;;;;;234.10;210.77;;;;;;;-1.14;89.01;102848.47;4976606;28;20077;-78
2023/03/02 05:53:23;;;;;;;246.03;219.97;;;;;;;-1.19;88.97;102846.25;5010322;28;20346;-79
2023/03/02 05:55:49;;;;;;;232.83;207.90;;;;;;;-1.03;89.01;102856.19;4988991;28;20045;-78
2023/03/02 05:58:17;;;;;;;234.13;213.50;;;;;;;-1.17;89.69;102851.38;4992526;28;20445;-78
2023/03/02 06:00:44;;;;;;;237.80;216.53;;;;;;;-1.02;89.26;102863.09;4954631;28;20080;-78
2023/03/02 06:03:10;;;;;;;237.33;212.77;;;;;;;-0.99;88.30;102857.59;4971921;28;20411;-78
2023/03/02 06:05:36;;;;;;;226.57;205.93;;;;;;;-1.19;89.13;102856.78;4955301;28;20050;-78
2023/03/02 06:08:02;;;;;;;230.50;209.27;;;;;;;-1.26;89.24;102865.38;4991031;28;20031;-78
2023/03/02 06:10:28;;;;;;;225.00;204.30;;;;;;;-1.23;89.45;102865.06;4973728;28;20408;-78
2023/03/02 06:12:54;;;;;;;226.63;205.43;;;;;;;-1.21;89.60;102869.25;4974590;28;20042;-78
2023/03/02 06:15:20;;;;;;;236.80;215.80;;;;;;;-1.13;89.56;102855.41;4952979;28;20101;-78
2023/03/02 06:17:46;;;;;;;231.10;210.63;;;;;;;-1.11;89.38;102854.28;4970340;28;20054;-79
2023/03/02 06:20:12;;;;;;;234.07;213.70;;;;;;;-1.05;89.19;102855.50;4955890;28;20030;-79
2023/03/02 06:22:44;;;;;;;236.03;215.67;;;;;;;-1.01;88.91;102854.28;4972597;28;20030;-79
2023/03/02 06:25:12;;;;;;;224.30;204.87;;;;;;;-0.99;88.67;102862.84;4967221;28;20035;-80
2023/03/02 06:27:39;;;;;;;227.17;206.73;;;;;;;-0.99;88.94;102862.84;4974988;28;20034;-78
2023/03/02 06:30:06;;;;;;;232.43;211.20;;;;;;;-1.01;89.18;102870.06;4974211;28;20127;-77
2023/03/02 06:32:34;;;;;;;220.43;199.60;;;;;;;-0.79;88.42;102873.31;4986387;28;20039;-77
2023/03/02 06:35:04;;;;;;;234.27;211.53;;;;;;;-0.94;88.51;102867.69;4989975;28;20034;-78
2023/03/02 06:37:30;;;;;;;222.37;201.80;;;;;;;-1.02;88.97;102868.38;4978572;28;20115;-77
2023/03/02 06:39:56;;;;;;;222.97;202.87;;;;;;;-0.97;88.88;102874.03;4976658;28;20113;-78
2023/03/02 06:42:26;;;;;;;223.50;203.57;;;;;;;-0.92;88.50;102873.63;4959678;28;20067;-78
2023/03/02 06:44:53;;;;;;;233.30;212.80;;;;;;;-1.02;88.69;102867.53;4995772;28;20047;-77
2023/03/02 06:47:21;;;;;;;228.70;207.83;;;;;;;-0.94;88.83;102871.16;4993706;28;20409;-77
2023/03/02 06:49:46;;;;;;;233.87;212.17;;;;;;;-0.97;88.67;102866.16;4975979;28;20093;-83
2023/03/02 06:52:13;;;;;;;238.77;217.60;;;;;;;-0.93;88.53;102867.53;5009380;28;21802;-77
2023/03/02 06:54:39;;;;;;;229.93;208.30;;;;;;;-0.87;88.67;102861.72;4964020;28;20042;-77
2023/03/02 06:57:04;;;;;;;226.13;205.40;;;;;;;-0.84;88.50;102865.84;4957551;28;20027;-79
2023/03/02 06:59:30;;;;;;;243.07;216.27;;;;;;;-0.70;88.90;102861.94;4975790;28;20045;-78
2023/03/02 07:01:56;;;;;;;232.23;212.03;;;;;;;-0.80;88.46;102861.97;4977861;28;20031;-77
2023/03/02 07:04:21;;;;;;;227.60;205.70;;;;;;;-0.70;88.39;102857.50;4958785;28;20047;-77
2023/03/02 07:06:47;;;;;;;228.93;205.93;;;;;;;-0.62;88.32;102859.41;4963934;28;20039;-78
2023/03/02 07:09:13;;;;;;;227.47;203.10;;;;;;;-0.60;88.32;102852.22;4980169;28;20226;-79
2023/03/02 07:11:39;;;;;;;233.70;211.57;;;;;;;-0.54;87.78;102862.19;4991628;28;20106;-78
2023/03/02 07:14:04;;;;;;;226.53;204.03;;;;;;;-0.67;88.03;102865.13;4990796;28;20117;-78
2023/03/02 07:16:32;;;;;;;228.43;206.70;;;;;;;-0.70;87.94;102857.50;4983790;28;20134;-77
2023/03/02 07:18:59;;;;;;;222.20;201.13;;;;;;;-0.72;88.14;102851.56;4960131;28;20030;-79
2023/03/02 07:21:24;;;;;;;281.13;215.67;;;;;;;-0.77;88.41;102858.22;4991338;28;20038;-79
2023/03/02 07:23:50;;;;;;;221.13;201.30;;;;;;;-0.76;88.55;102858.06;4974184;28;20034;-80
2023/03/02 07:26:16;;;;;;;222.37;202.07;;;;;;;-0.67;88.59;102857.22;4970619;28;20042;-76
2023/03/02 07:28:43;;;;;;;280.20;203.80;;;;;;;-0.57;88.16;102851.91;4974359;28;20493;-76
2023/03/02 07:31:10;;;;;;;239.23;210.33;;;;;;;-0.57;87.74;102854.56;4973770;28;20167;-76
2023/03/02 07:33:36;;;;;;;222.70;200.67;;;;;;;-0.68;88.51;102841.56;4987876;28;20046;-77
2023/03/02 07:36:02;;;;;;;272.20;205.83;;;;;;;-0.57;88.04;102847.47;4972476;28;20097;-78
2023/03/02 07:38:28;;;;;;;242.10;205.93;;;;;;;-0.49;87.78;102838.84;4987965;28;20039;-77
2023/03/02 07:40:54;;;;;;;230.83;210.57;;;;;;;-0.57;87.59;102838.75;4976562;28;20038;-76
2023/03/02 07:43:20;;;;;;;299.03;206.60;;;;;;;-0.42;87.87;102839.94;4972098;28;20027;-76
2023/03/02 07:45:45;;;;;;;225.73;204.67;;;;;;;-0.53;87.56;102834.88;4973846;28;20401;-76
2023/03/02 07:48:11;;;;;;;226.10;205.53;;;;;;;-0.53;87.55;102845.41;4958804;28;20492;-75
2023/03/02 07:50:36;;;;;;;219.23;199.23;;;;;;;-0.45;87.20;102840.25;4979007;28;20050;-77
2023/03/02 07:53:02;;;;;;;360.63;207.77;;;;;;;-0.40;87.35;102838.00;4957298;28;20031;-76
2023/03/02 07:55:28;;;;;;;222.07;201.50;;;;;;;-0.34;87.22;102833.94;4968381;28;20048;-77
2023/03/02 07:57:53;;;;;;;229.83;206.37;;;;;;;-0.32;87.67;102851.25;5008217;28;20046;-78
2023/03/02 08:00:20;;;;;;;228.27;203.07;;;;;;;-0.43;87.95;102848.81;4986520;28;20074;-77
2023/03/02 08:02:46;;;;;;;225.97;201.90;;;;;;;-0.41;87.49;102836.31;4968850;28;20027;-77
2023/03/02 08:05:12;;;;;;;254.60;205.83;;;;;;;-0.38;87.22;102830.78;4972446;28;20035;-77
2023/03/02 08:07:38;;;;;;;225.67;203.70;;;;;;;-0.30;87.68;102838.78;4969830;28;20146;-76
2023/03/02 08:10:04;;;;;;;274.83;205.77;;;;;;;-0.20;87.57;102832.63;4961450;28;20101;-76
2023/03/02 08:12:29;;;;;;;227.00;203.43;;;;;;;-0.12;87.04;102836.19;4989609;28;20448;-76
2023/03/02 08:14:55;;;;;;;225.03;203.20;;;;;;;-0.11;86.87;102837.00;4976199;28;20030;-77
2023/03/02 08:17:21;;;;;;;277.70;202.60;;;;;;;0.04;86.12;102837.34;4972235;28;20065;-77
2023/03/02 08:19:47;;;;;;;224.27;203.83;;;;;;;-0.13;86.62;102836.34;4972617;28;20039;-76
2023/03/02 08:22:13;;;;;;;273.63;204.03;;;;;;;0.09;86.09;102838.56;4973524;28;20113;-75
2023/03/02 08:24:40;;;;;;;245.57;200.00;;;;;;;0.13;85.81;102842.53;4978453;28;20035;-75
2023/03/02 08:27:07;;;;;;;260.67;201.53;;;;;;;-0.04;85.90;102832.81;4971521;28;20942;-75
2023/03/02 08:29:33;;;;;;;259.63;202.47;;;;;;;0.07;85.82;102827.34;4969450;28;20038;-75
2023/03/02 08:31:59;;;;;;;229.27;204.87;;;;;;;-0.01;86.26;102821.97;4973173;28;20035;-76
2023/03/02 08:34:25;;;;;;;263.53;201.33;;;;;;;0.17;85.51;102829.91;4971275;28;20066;-76
2023/03/02 08:36:51;;;;;;;221.17;200.50;;;;;;;-0.10;85.90;102823.69;4958507;28;20042;-76
2023/03/02 08:39:17;;;;;;;218.30;198.57;;;;;;;-0.08;86.48;102821.72;4989328;28;20109;-76
2023/03/02 08:41:43;;;;;;;223.37;203.00;;;;;;;-0.06;86.37;102817.16;5008791;28;20039;-79
2023/03/02 08:44:09;;;;;;;220.07;199.73;;;;;;;-0.06;85.75;102830.34;4979587;28;20038;-78
2023/03/02 08:46:35;;;;;;;252.77;199.93;;;;;;;0.14;85.77;102828.41;4972664;28;20460;-75
2023/03/02 08:49:00;;;;;;;230.07;209.33;;;;;;;0.08;85.49;102822.91;4989093;28;20054;-76
2023/03/02 08:51:26;;;;;;;224.77;203.13;;;;;;;0.10;86.38;102827.03;4968644;28;20043;-75
2023/03/02 08:53:55;;;;;;;222.90;202.03;;;;;;;0.09;86.05;102828.00;4955866;28;20035;-76
2023/03/02 08:56:22;;;;;;;229.00;203.70;;;;;;;0.43;84.65;102820.25;4981045;28;20034;-76
2023/03/02 08:58:48;;;;;;;229.00;206.27;;;;;;;0.31;85.60;102831.19;4971831;28;20096;-76
2023/03/02 09:01:16;;;;;;;221.80;200.03;;;;;;;0.48;85.41;102839.09;4979958;28;20037;-76
2023/03/02 09:03:42;;;;;;;219.03;198.33;;;;;;;0.65;84.72;102826.84;4990036;28;20383;-77
2023/03/02 09:06:08;;;;;;;221.50;202.13;;;;;;;0.43;84.87;102817.63;4975708;28;20042;-76
2023/03/02 09:08:33;;;;;;;220.63;200.87;;;;;;;0.56;84.45;102814.59;4987979;28;20074;-75
2023/03/02 09:10:59;;;;;;;222.60;200.87;;;;;;;0.65;83.82;102810.22;4957879;28;20097;-76
2023/03/02 09:13:25;;;;;;;225.23;204.57;;;;;;;0.62;84.50;102814.00;4977052;28;20034;-76
2023/03/02 09:15:50;;;;;;;223.47;199.63;;;;;;;0.75;83.79;102813.59;4993987;28;20412;-76
2023/03/02 09:18:16;;;;;;;236.83;200.50;;;;;;;0.53;83.71;102799.06;4972293;28;20031;-76
2023/03/02 09:20:41;;;;;;;218.43;198.87;;;;;;;0.74;84.25;102796.09;4992319;28;20031;-77
2023/03/02 09:23:07;;;;;;;222.17;201.53;;;;;;;0.59;83.67;102795.81;4977176;28;20073;-76
2023/03/02 09:25:32;;;;;;;224.30;203.37;;;;;;;0.65;84.04;102797.84;4973761;28;20031;-75
2023/03/02 09:27:58;;;;;;;221.33;200.93;;;;;;;0.89;83.49;102793.75;4972386;28;20143;-75
2023/03/02 09:30:24;;;;;;;222.37;201.97;;;;;;;0.87;83.48;102790.41;4970906;28;20051;-76
2023/03/02 09:32:49;;;;;;;220.63;199.27;;;;;;;1.14;82.15;102792.88;4959419;28;20038;-76
2023/03/02 09:35:15;;;;;;;220.87;201.60;;;;;;;0.88;83.21;102792.91;4970638;28;20049;-75
2023/03/02 09:37:40;;;;;;;220.03;200.97;;;;;;;0.91;83.74;102791.75;4956592;28;20078;-77
2023/03/02 09:40:26;;;;;;;216.80;197.10;;;;;;;0.84;82.85;102798.66;4991162;28;20035;-76
2023/03/02 09:43:10;;;;;;;222.50;201.90;;;;;;;0.68;83.69;102796.75;4986431;28;20039;-76
2023/03/02 09:45:42;;;;;;;219.53;199.97;;;;;;;0.87;83.46;102795.69;4969824;28;20062;-77
2023/03/02 09:48:21;;;;;;;228.68;208.70;;;;;;;0.95;83.32;102799.22;4958420;28;20155;-77
2023/03/02 09:51:14;;;;;;;215.40;195.47;;;;;;;0.95;82.57;102803.66;4959322;28;20134;-75
2023/03/02 09:53:51;;;;;;;226.85;207.20;;;;;;;0.63;83.34;102815.66;4975756;28;20045;-77
2023/03/02 09:56:18;;;;;;;218.33;199.47;;;;;;;1.14;82.32;102810.53;4979526;28;20548;-77
2023/03/02 09:58:53;;;;;;;218.53;199.27;;;;;;;1.12;82.08;102810.69;4958520;28;20529;-77
2023/03/02 10:01:31;;;;;;;220.00;200.83;;;;;;;0.87;83.64;102808.88;4976781;28;20038;-78
2023/03/02 10:04:08;;;;;;;215.90;197.27;;;;;;;1.28;82.75;102820.50;4971144;28;20038;-79
2023/03/02 10:06:33;;;;;;;217.67;198.90;;;;;;;1.08;83.36;102809.34;4953388;28;20035;-78
2023/03/02 10:08:59;;;;;;;221.30;202.23;;;;;;;1.11;82.11;102809.03;4955083;28;20565;-77
2023/03/02 10:11:43;;;;;;;215.33;197.00;;;;;;;1.39;81.07;102822.03;4976700;28;20501;-76
2023/03/02 10:14:16;;;;;;;214.60;195.73;;;;;;;0.94;81.45;102820.47;4984189;28;20046;-75
2023/03/02 10:17:08;;;;;;;216.43;198.00;;;;;;;0.93;81.93;102822.28;5004335;28;20039;-77
2023/03/02 10:19:54;;;;;;;219.03;199.97;;;;;;;1.04;81.99;102815.94;4974944;28;20039;-76
2023/03/02 10:22:32;;;;;;;218.13;199.70;;;;;;;1.18;81.75;102814.53;4975452;28;20049;-75
2023/03/02 10:25:24;;;;;;;215.07;197.20;;;;;;;1.52;80.15;102807.41;4991693;28;20038;-76
2023/03/02 10:27:58;;;;;;;220.63;201.88;;;;;;;1.38;80.41;102804.56;4963830;28;20030;-75
2023/03/02 10:30:29;;;;;;;217.43;199.65;;;;;;;1.42;80.65;102805.88;4972986;28;20410;-76
2023/03/02 10:33:01;;;;;;;213.20;195.65;;;;;;;1.23;80.81;102801.69;4976464;28;20704;-77
2023/03/02 10:35:28;;;;;;;211.93;194.95;;;;;;;0.88;82.13;102802.63;4960323;28;20647;-75
2023/03/02 10:38:11;;;;;;;215.55;197.45;;;;;;;0.94;81.86;102802.81;4982834;28;20034;-76
2023/03/02 10:40:45;;;;;;;215.93;198.02;;;;;;;0.81;82.21;102808.53;4973627;28;20471;-76
2023/03/02 10:43:18;;;;;;;214.32;196.63;;;;;;;1.06;81.24;102803.41;4971134;28;20031;-75
2023/03/02 10:45:44;;;;;;;218.70;200.85;;;;;;;1.47;80.08;102795.66;4993321;28;20034;-75
2023/03/02 10:48:12;;;;;;;217.75;199.85;;;;;;;1.25;80.69;102799.72;4961523;28;20030;-77
2023/03/02 10:50:38;;;;;;;221.88;203.75;;;;;;;1.60;80.75;102793.41;4986068;28;20065;-76
2023/03/02 10:53:16;;;;;;;214.55;196.88;;;;;;;1.64;79.96;102794.75;4960358;28;20778;-77
2023/03/02 10:55:48;;;;;;;224.57;206.25;;;;;;;1.84;79.27;102796.13;4973255;28;20034;-75
2023/03/02 10:58:31;;;;;;;221.00;202.30;;;;;;;1.77;78.87;102789.03;4973083;28;20058;-76
2023/03/02 11:01:06;;;;;;;232.93;213.18;;;;;;;1.80;78.69;102792.16;4973697;28;20072;-77
2023/03/02 11:03:32;;;;;;;229.00;209.45;;;;;;;2.24;77.53;102791.91;4993426;28;20030;-74